Time;durP1;ratioP1;P1;durP2;ratioP2;P2;SDS_P1;SDS_P2;PMS_P1;PMS_P2;Temp;Humidity;BMP_temperature;BMP_pressure;BME280_temperature;BME280_humidity;BME280_pressure;Samples;Min_cycle;Max_cycle;Signal;HPM_P1;HPM_P2
2022/03/30 00:01:28;;;;;;;;;;;;;;;17.63;62.36;100172.31;5061683;28;1906;-61
2022/03/30 00:03:55;;;;;;;;;;;;;;;17.62;62.44;100176.81;5069108;28;1556;-61
2022/03/30 00:06:21;;;;;;;;;;;;;;;17.62;62.55;100181.31;5059003;28;1674;-60
2022/03/30 00:08:48;;;;;;;;;;;;;;;17.59;62.54;100168.25;5063645;28;1684;-60
2022/03/30 00:11:15;;;;;;;;;;;;;;;17.60;62.28;100175.28;5069803;28;1308;-72
2022/03/30 00:13:42;;;;;;;;;;;;;;;17.59;62.23;100184.28;5064003;28;1412;-72
2022/03/30 00:16:09;;;;;;;;;;;;;;;17.59;61.88;100171.75;5057983;28;1530;-60
2022/03/30 00:18:37;;;;;;;;;;;;;;;17.56;62.35;100165.84;5070009;28;1361;-60
2022/03/30 00:21:04;;;;;;;;;;;;;;;17.58;62.15;100167.38;5062541;28;1978;-61
2022/03/30 00:23:31;;;;;;;;;;;;;;;17.59;62.40;100176.28;5062596;28;1449;-72
2022/03/30 00:25:58;;;;;;;;;;;;;;;17.60;62.06;100168.09;5069923;28;1231;-71
2022/03/30 00:28:27;;;;;;;;;;;;;;;17.59;62.07;100168.25;5063433;28;1708;-66
2022/03/30 00:30:54;;;;;;;;;;;;;;;17.58;61.88;100169.22;5056622;28;1746;-61
2022/03/30 00:33:20;;;;;;;;;;;;;;;17.58;61.99;100163.88;5064486;28;1295;-71
2022/03/30 00:35:48;;;;;;;;;;;;;;;17.59;62.07;100157.56;5060140;28;1544;-70
2022/03/30 00:38:15;;;;;;;;;;;;;;;17.61;62.07;100175.13;5062750;28;1504;-72
2022/03/30 00:40:42;;;;;;;;;;;;;;;17.56;62.15;100166.69;5058623;28;1906;-60
2022/03/30 00:43:08;;;;;;;;;;;;;;;17.57;61.71;100162.19;5068237;28;1631;-71
2022/03/30 00:45:35;;;;;;;;;;;;;;;17.57;62.50;100167.53;5057582;28;1568;-72
2022/03/30 00:48:02;;;;;;;;;;;;;;;17.56;62.25;100171.19;5058991;28;1498;-60
2022/03/30 00:50:28;;;;;;;;;;;;;;;17.56;62.70;100168.53;5062258;28;1820;-71
2022/03/30 00:52:56;;;;;;;;;;;;;;;17.56;62.41;100171.19;5062602;28;1365;-60
2022/03/30 00:55:24;;;;;;;;;;;;;;;17.59;62.45;100161.06;5055479;28;1729;-71
2022/03/30 00:57:52;;;;;;;;;;;;;;;17.57;62.03;100168.38;5063611;28;1521;-60
2022/03/30 01:00:19;;;;;;;;;;;;;;;17.49;61.82;100162.91;5055402;28;1905;-72
2022/03/30 01:02:47;;;;;;;;;;;;;;;17.64;62.98;100163.31;5060858;28;1533;-72
2022/03/30 01:05:14;;;;;;;;;;;;;;;17.93;62.54;100152.63;5055688;28;1744;-60
2022/03/30 01:07:41;;;;;;;;;;;;;;;17.94;62.58;100153.47;5071368;28;1450;-72
2022/03/30 01:10:11;;;;;;;;;;;;;;;18.01;62.19;100149.22;5066283;28;1688;-72
2022/03/30 01:12:39;;;;;;;;;;;;;;;18.13;61.87;100153.41;5062812;28;1581;-60
2022/03/30 01:15:06;;;;;;;;;;;;;;;18.20;61.45;100143.81;5061751;28;1636;-60
2022/03/30 01:17:33;;;;;;;;;;;;;;;18.27;61.72;100154.78;5059620;28;1461;-71
2022/03/30 01:19:59;;;;;;;;;;;;;;;18.31;61.44;100141.97;5066738;28;1902;-60
2022/03/30 01:22:27;;;;;;;;;;;;;;;18.34;61.35;100138.97;5058600;28;1440;-72
2022/03/30 01:24:54;;;;;;;;;;;;;;;18.36;61.81;100140.50;5061917;28;1489;-72
2022/03/30 01:27:20;;;;;;;;;;;;;;;18.32;61.63;100139.13;5061986;28;1353;-71
2022/03/30 01:32:31;;;;;;;;;;;;;;;18.38;61.43;100132.34;5060198;28;1354;-60
2022/03/30 01:34:59;;;;;;;;;;;;;;;18.44;61.38;100131.75;5067248;28;1456;-72
2022/03/30 01:37:28;;;;;;;;;;;;;;;18.57;60.78;100132.25;5065284;28;1347;-72
2022/03/30 01:39:55;;;;;;;;;;;;;;;18.67;60.36;100122.34;5058433;28;1913;-72
2022/03/30 01:42:21;;;;;;;;;;;;;;;18.94;59.98;100136.78;5061145;28;1759;-59
2022/03/30 01:44:49;;;;;;;;;;;;;;;18.84;60.13;100130.59;5062134;28;1668;-72
2022/03/30 01:47:15;;;;;;;;;;;;;;;18.79;60.31;100133.72;5061763;28;1417;-71
2022/03/30 01:49:42;;;;;;;;;;;;;;;18.81;60.13;100137.09;5065136;28;1310;-72
2022/03/30 01:52:09;;;;;;;;;;;;;;;18.88;59.93;100137.38;5068733;28;1380;-60
2022/03/30 01:54:38;;;;;;;;;;;;;;;18.93;59.75;100136.91;5058727;28;1692;-60
2022/03/30 01:57:06;;;;;;;;;;;;;;;18.88;60.52;100132.84;5068238;28;1349;-60
2022/03/30 01:59:33;;;;;;;;;;;;;;;18.87;59.89;100138.34;5064053;28;1661;-69
2022/03/30 02:02:00;;;;;;;;;;;;;;;18.84;60.25;100135.97;5057687;28;1972;-71
2022/03/30 02:04:27;;;;;;;;;;;;;;;18.89;60.36;100133.69;5064660;28;1393;-72
2022/03/30 02:06:54;;;;;;;;;;;;;;;18.81;60.54;100150.50;5061864;28;1501;-60
2022/03/30 02:09:20;;;;;;;;;;;;;;;18.82;60.29;100145.97;5056583;28;1685;-64
2022/03/30 02:11:50;;;;;;;;;;;;;;;18.87;60.21;100157.94;5068810;28;1564;-60
2022/03/30 02:14:16;;;;;;;;;;;;;;;18.85;60.39;100156.41;5056300;28;1678;-60
2022/03/30 02:16:43;;;;;;;;;;;;;;;18.95;59.84;100143.78;5058034;28;1767;-60
2022/03/30 02:19:11;;;;;;;;;;;;;;;18.99;60.06;100139.81;5068017;28;1714;-60
2022/03/30 02:21:38;;;;;;;;;;;;;;;18.97;59.50;100140.97;5057332;28;1902;-60
2022/03/30 02:24:06;;;;;;;;;;;;;;;18.92;59.91;100149.47;5059505;28;1396;-61
2022/03/30 02:26:33;;;;;;;;;;;;;;;19.02;59.54;100131.50;5062724;28;1751;-60
2022/03/30 02:29:01;;;;;;;;;;;;;;;19.03;59.25;100151.91;5061745;28;1420;-71
2022/03/30 02:31:28;;;;;;;;;;;;;;;19.00;59.42;100144.19;5060274;28;1708;-72
2022/03/30 02:33:54;;;;;;;;;;;;;;;18.97;59.92;100151.69;5074380;28;1881;-61
2022/03/30 02:36:21;;;;;;;;;;;;;;;19.16;59.86;100156.06;5063679;28;1569;-72
2022/03/30 02:38:48;;;;;;;;;;;;;;;19.16;59.13;100156.06;5059595;28;1502;-60
2022/03/30 02:41:14;;;;;;;;;;;;;;;19.18;58.99;100168.34;5067561;28;1906;-60
2022/03/30 02:43:41;;;;;;;;;;;;;;;19.32;59.50;100161.63;5064871;28;1716;-72
2022/03/30 02:46:09;;;;;;;;;;;;;;;19.24;58.97;100164.22;5061119;28;1629;-72
2022/03/30 02:48:37;;;;;;;;;;;;;;;19.16;59.48;100156.94;5060446;28;1615;-60
2022/03/30 02:51:05;;;;;;;;;;;;;;;19.19;58.90;100164.66;5065015;28;1754;-60
2022/03/30 02:53:33;;;;;;;;;;;;;;;19.05;60.10;100162.50;5060927;28;1611;-60
2022/03/30 02:56:00;;;;;;;;;;;;;;;19.11;58.98;100169.94;5064083;28;1282;-72
2022/03/30 02:58:27;;;;;;;;;;;;;;;19.06;59.68;100162.34;5066508;28;1763;-72
2022/03/30 03:00:54;;;;;;;;;;;;;;;19.11;59.70;100161.06;5061175;28;1981;-72
2022/03/30 03:03:22;;;;;;;;;;;;;;;19.11;59.24;100161.06;5062913;28;1339;-60
2022/03/30 03:05:49;;;;;;;;;;;;;;;19.11;59.42;100159.22;5067986;28;1389;-60
2022/03/30 03:08:16;;;;;;;;;;;;;;;19.10;59.85;100160.22;5068052;28;1260;-72
2022/03/30 03:10:44;;;;;;;;;;;;;;;19.32;59.26;100168.78;5062789;28;1614;-60
2022/03/30 03:13:11;;;;;;;;;;;;;;;19.20;59.30;100174.41;5060219;28;1743;-72
2022/03/30 03:15:38;;;;;;;;;;;;;;;19.10;59.55;100199.56;5057452;28;1587;-61
2022/03/30 03:18:06;;;;;;;;;;;;;;;19.14;59.79;100182.19;5062441;28;1282;-60
2022/03/30 03:20:34;;;;;;;;;;;;;;;19.30;58.59;100185.06;5063896;28;1906;-61
2022/03/30 03:23:03;;;;;;;;;;;;;;;19.26;59.33;100183.69;5062729;28;1708;-72
2022/03/30 03:25:32;;;;;;;;;;;;;;;19.21;58.98;100185.94;5066697;28;1764;-72
2022/03/30 03:27:59;;;;;;;;;;;;;;;19.23;58.90;100195.53;5082989;28;1391;-61
2022/03/30 03:30:26;;;;;;;;;;;;;;;19.22;59.45;100185.81;5068550;28;1473;-70
2022/03/30 03:32:54;;;;;;;;;;;;;;;19.27;58.65;100191.53;5065533;28;1657;-72
2022/03/30 03:35:21;;;;;;;;;;;;;;;19.39;58.84;100194.84;5061718;28;1361;-60
2022/03/30 03:37:49;;;;;;;;;;;;;;;19.36;59.25;100194.31;5064599;28;1716;-72
2022/03/30 03:40:17;;;;;;;;;;;;;;;19.16;59.48;100193.59;5062209;28;1563;-60
2022/03/30 03:42:44;;;;;;;;;;;;;;;19.20;58.85;100195.84;5065885;28;1902;-72
2022/03/30 03:45:10;;;;;;;;;;;;;;;19.21;59.46;100188.63;5065859;28;1561;-65
2022/03/30 03:47:37;;;;;;;;;;;;;;;19.41;59.02;100200.06;5062116;28;1657;-71
2022/03/30 03:50:04;;;;;;;;;;;;;;;19.32;58.51;100215.25;5058272;28;1405;-72
2022/03/30 03:52:31;;;;;;;;;;;;;;;19.23;59.60;100203.56;5066403;28;1370;-72
2022/03/30 03:54:59;;;;;;;;;;;;;;;19.11;58.99;100198.56;5064322;28;1634;-61
2022/03/30 03:57:25;;;;;;;;;;;;;;;18.76;60.15;100198.31;5063897;28;1722;-71
2022/03/30 03:59:52;;;;;;;;;;;;;;;18.54;60.59;100204.84;5064817;28;1358;-72
2022/03/30 04:02:18;;;;;;;;;;;;;;;18.45;61.04;100205.75;5063797;28;1990;-71
2022/03/30 04:04:45;;;;;;;;;;;;;;;18.36;61.24;100206.59;5067070;28;1489;-72
2022/03/30 04:07:12;;;;;;;;;;;;;;;18.26;60.98;100196.78;5061166;28;1712;-71
2022/03/30 04:09:39;;;;;;;;;;;;;;;18.23;61.52;100197.06;5062271;28;1763;-60
2022/03/30 04:12:08;;;;;;;;;;;;;;;18.19;61.19;100195.66;5069199;28;1844;-60
2022/03/30 04:14:35;;;;;;;;;;;;;;;18.13;61.42;100200.75;5057822;28;1536;-72
2022/03/30 04:17:01;;;;;;;;;;;;;;;18.13;61.39;100204.25;5059278;28;1366;-61
2022/03/30 04:19:28;;;;;;;;;;;;;;;18.11;61.46;100211.59;5064456;28;1720;-60
2022/03/30 04:21:55;;;;;;;;;;;;;;;18.06;61.30;100220.06;5058419;28;1989;-72
2022/03/30 04:24:21;;;;;;;;;;;;;;;18.04;61.30;100213.13;5064486;28;1554;-60
2022/03/30 04:26:48;;;;;;;;;;;;;;;18.04;61.25;100216.66;5069519;28;1416;-60
2022/03/30 04:29:16;;;;;;;;;;;;;;;18.02;61.13;100226.66;5060339;28;1592;-72
2022/03/30 04:31:42;;;;;;;;;;;;;;;17.96;61.05;100213.84;5061678;28;1361;-71
2022/03/30 04:34:09;;;;;;;;;;;;;;;17.97;61.16;100217.38;5071725;28;1664;-59
2022/03/30 04:36:35;;;;;;;;;;;;;;;17.94;61.26;100210.47;5060497;28;1424;-60
2022/03/30 04:39:02;;;;;;;;;;;;;;;17.94;60.96;100215.81;5065619;28;1619;-60
2022/03/30 04:41:28;;;;;;;;;;;;;;;17.93;60.84;100222.16;5068791;28;1902;-72
2022/03/30 04:43:55;;;;;;;;;;;;;;;17.94;60.96;100223.84;5060952;28;1340;-60
2022/03/30 04:46:23;;;;;;;;;;;;;;;17.91;60.49;100218.78;5053408;28;1783;-60
2022/03/30 04:48:49;;;;;;;;;;;;;;;17.91;60.92;100224.16;5059414;28;1704;-72
2022/03/30 04:51:16;;;;;;;;;;;;;;;17.89;61.23;100226.13;5061817;28;1422;-72
2022/03/30 04:53:43;;;;;;;;;;;;;;;17.86;61.06;100227.22;5068395;28;1459;-71
2022/03/30 04:56:09;;;;;;;;;;;;;;;17.87;61.30;100228.09;5060708;28;1545;-60
2022/03/30 04:58:36;;;;;;;;;;;;;;;17.83;61.09;100226.66;5065060;28;1287;-61
2022/03/30 05:01:02;;;;;;;;;;;;;;;17.92;61.37;100225.81;5056526;28;1902;-61
2022/03/30 05:03:30;;;;;;;;;;;;;;;17.99;61.13;100223.44;5060607;28;1390;-61
2022/03/30 05:05:58;;;;;;;;;;;;;;;18.01;61.69;100234.84;5063856;28;1837;-73
2022/03/30 05:08:25;;;;;;;;;;;;;;;18.03;61.83;100239.06;5055415;28;1524;-66
2022/03/30 05:10:52;;;;;;;;;;;;;;;18.09;61.92;100233.13;5061276;28;1408;-65
2022/03/30 05:13:19;;;;;;;;;;;;;;;18.05;62.12;100237.09;5056938;28;1516;-61
2022/03/30 05:15:46;;;;;;;;;;;;;;;18.04;62.42;100232.69;5059166;28;1719;-72
2022/03/30 05:18:12;;;;;;;;;;;;;;;18.17;61.43;100228.91;5060779;28;1347;-72
2022/03/30 05:20:44;;;;;;;;;;;;;;;18.14;61.57;100229.19;5062804;28;1572;-61
2022/03/30 05:23:10;;;;;;;;;;;;;;;18.00;62.21;100228.63;5062929;28;1914;-70
2022/03/30 05:25:37;;;;;;;;;;;;;;;17.96;62.72;100231.72;5060412;28;1668;-60
2022/03/30 05:28:04;;;;;;;;;;;;;;;17.98;62.48;100229.75;5061058;28;1363;-61
2022/03/30 05:30:31;;;;;;;;;;;;;;;18.07;62.01;100245.81;5058482;28;1483;-70
2022/03/30 05:32:57;;;;;;;;;;;;;;;18.16;61.40;100246.78;5064142;28;1632;-63
2022/03/30 05:35:24;;;;;;;;;;;;;;;18.30;60.63;100242.81;5065639;28;1346;-63
2022/03/30 05:37:52;;;;;;;;;;;;;;;18.42;59.64;100238.13;5064230;28;1829;-63
2022/03/30 05:40:18;;;;;;;;;;;;;;;18.37;59.82;100240.44;5058789;28;1763;-56
2022/03/30 05:42:45;;;;;;;;;;;;;;;18.38;60.87;100242.97;5063521;28;1971;-59
2022/03/30 05:45:12;;;;;;;;;;;;;;;18.35;60.90;100234.38;5055631;28;1462;-65
2022/03/30 05:47:39;;;;;;;;;;;;;;;18.44;60.56;100241.50;5061550;28;1667;-58
2022/03/30 05:50:08;;;;;;;;;;;;;;;18.41;61.13;100245.34;5066537;28;1643;-57
2022/03/30 05:52:35;;;;;;;;;;;;;;;18.40;61.22;100229.41;5059303;28;1463;-58
2022/03/30 05:55:03;;;;;;;;;;;;;;;18.34;61.78;100232.66;5062638;28;1576;-59
2022/03/30 05:57:29;;;;;;;;;;;;;;;18.34;61.43;100238.03;5061564;28;1351;-59
2022/03/30 05:59:58;;;;;;;;;;;;;;;18.32;61.72;100235.47;5053523;28;1672;-59
2022/03/30 06:02:24;;;;;;;;;;;;;;;18.33;61.68;100233.66;5063797;28;1985;-63
2022/03/30 06:04:53;;;;;;;;;;;;;;;18.34;61.90;100236.19;5063219;28;1611;-64
2022/03/30 06:07:20;;;;;;;;;;;;;;;18.38;61.72;100226.03;5064136;28;1526;-70
2022/03/30 06:09:47;;;;;;;;;;;;;;;18.46;61.38;100234.19;5063339;28;1529;-67
2022/03/30 06:12:14;;;;;;;;;;;;;;;18.47;61.38;100222.50;5065565;28;1777;-72
2022/03/30 06:14:41;;;;;;;;;;;;;;;18.51;61.18;100229.25;5058514;28;1747;-57
2022/03/30 06:17:08;;;;;;;;;;;;;;;18.62;61.76;100233.56;5065025;28;1425;-64
2022/03/30 06:19:35;;;;;;;;;;;;;;;18.67;61.35;100234.81;5067521;28;1347;-62
2022/03/30 06:22:05;;;;;;;;;;;;;;;18.61;61.50;100238.09;5059937;28;1894;-60
2022/03/30 06:24:32;;;;;;;;;;;;;;;18.64;60.91;100216.41;5062812;28;1432;-65
2022/03/30 06:26:58;;;;;;;;;;;;;;;18.65;61.11;100235.97;5069683;28;1505;-62
2022/03/30 06:29:26;;;;;;;;;;;;;;;18.68;56.99;100216.91;5058804;28;1420;-64
2022/03/30 06:31:53;;;;;;;;;;;;;;;18.50;60.67;100224.88;5061888;28;1622;-63
2022/03/30 06:34:20;;;;;;;;;;;;;;;18.48;59.00;100233.06;5068035;28;1625;-64
2022/03/30 06:36:46;;;;;;;;;;;;;;;18.49;58.83;100228.56;5059660;28;1700;-64
2022/03/30 06:39:13;;;;;;;;;;;;;;;18.52;58.68;100217.53;5066325;28;1267;-63
2022/03/30 06:41:39;;;;;;;;;;;;;;;18.53;58.61;100219.25;5071002;28;1973;-64
2022/03/30 06:44:06;;;;;;;;;;;;;;;18.50;58.88;100224.88;5061971;28;1265;-63
2022/03/30 06:46:38;;;;;;;;;;;;;;;18.52;57.93;100228.25;5059652;28;1759;-61
2022/03/30 06:49:05;;;;;;;;;;;;;;;18.54;57.95;100212.88;5060901;28;1561;-64
2022/03/30 06:51:31;;;;;;;;;;;;;;;18.56;57.97;100216.28;5064939;28;1283;-59
2022/03/30 06:53:58;;;;;;;;;;;;;;;18.53;58.69;100223.75;5067876;28;1696;-60
2022/03/30 06:56:25;;;;;;;;;;;;;;;18.52;58.49;100212.19;5062705;28;1414;-64
2022/03/30 06:58:52;;;;;;;;;;;;;;;18.58;58.45;100218.78;5062544;28;1506;-65
2022/03/30 07:01:18;;;;;;;;;;;;;;;18.56;58.89;100218.97;5058817;28;1602;-63
2022/03/30 07:03:46;;;;;;;;;;;;;;;18.58;58.67;100225.00;5061938;28;1902;-59
2022/03/30 07:06:13;;;;;;;;;;;;;;;18.56;58.18;100218.09;5066704;28;1728;-59
2022/03/30 07:11:24;;;;;;;;;;;;;;;18.54;57.92;100217.41;5060679;28;1395;-59
2022/03/30 07:13:51;;;;;;;;;;;;;;;18.57;57.54;100220.63;5067709;28;1306;-58
2022/03/30 07:16:18;;;;;;;;;;;;;;;18.56;57.10;100205.56;5059902;28;1673;-63
2022/03/30 07:18:45;;;;;;;;;;;;;;;18.56;56.84;100218.97;5063352;28;1530;-63
2022/03/30 07:21:12;;;;;;;;;;;;;;;18.53;56.81;100205.84;5067641;28;1751;-61
2022/03/30 07:23:39;;;;;;;;;;;;;;;18.58;56.31;100211.63;5066178;28;1909;-64
2022/03/30 07:26:05;;;;;;;;;;;;;;;18.61;56.35;100205.13;5064572;28;1277;-66
2022/03/30 07:28:32;;;;;;;;;;;;;;;18.60;54.80;100209.66;5066919;28;1854;-61
2022/03/30 07:30:59;;;;;;;;;;;;;;;18.57;55.20;100219.78;5060844;28;1786;-60
2022/03/30 07:33:25;;;;;;;;;;;;;;;18.57;55.16;100220.63;5064780;28;1836;-65
2022/03/30 07:35:53;;;;;;;;;;;;;;;18.54;55.06;100218.22;5067829;28;1308;-65
2022/03/30 07:38:21;;;;;;;;;;;;;;;18.57;54.70;100222.47;5060572;28;1771;-60
2022/03/30 07:40:48;;;;;;;;;;;;;;;18.57;54.55;100242.06;5063596;28;1814;-58
2022/03/30 07:43:16;;;;;;;;;;;;;;;18.56;54.24;100220.78;5066411;28;1985;-61
2022/03/30 07:45:43;;;;;;;;;;;;;;;18.58;54.58;100224.16;5061693;28;1311;-60
2022/03/30 07:48:10;;;;;;;;;;;;;;;18.62;54.08;100222.88;5066039;28;1521;-65
2022/03/30 07:50:36;;;;;;;;;;;;;;;18.63;53.66;100233.44;5069237;28;1406;-65
2022/03/30 07:53:07;;;;;;;;;;;;;;;18.60;53.94;100233.75;5063373;28;1699;-65
2022/03/30 07:55:34;;;;;;;;;;;;;;;18.64;53.21;100232.47;5063934;28;1374;-60
2022/03/30 07:58:02;;;;;;;;;;;;;;;18.61;53.30;100238.09;5066291;28;1444;-65
2022/03/30 08:00:29;;;;;;;;;;;;;;;18.60;53.09;100233.75;5063057;28;1739;-63
2022/03/30 08:02:56;;;;;;;;;;;;;;;18.64;51.83;100245.84;5066489;28;1988;-59
2022/03/30 08:05:22;;;;;;;;;;;;;;;18.67;51.84;100237.50;5063236;28;1746;-59
2022/03/30 08:07:50;;;;;;;;;;;;;;;18.62;52.35;100223.72;5064018;28;1362;-64
2022/03/30 08:10:18;;;;;;;;;;;;;;;18.67;51.68;100242.88;5066681;28;1386;-65
2022/03/30 08:12:47;;;;;;;;;;;;;;;18.65;51.00;100233.28;5058565;28;1354;-60
2022/03/30 08:15:14;;;;;;;;;;;;;;;18.68;50.81;100249.06;5062638;28;1521;-58
2022/03/30 08:17:41;;;;;;;;;;;;;;;18.65;51.93;100228.78;5065761;28;1397;-63
2022/03/30 08:20:08;;;;;;;;;;;;;;;18.64;51.79;100237.81;5065021;28;1524;-65
2022/03/30 08:22:34;;;;;;;;;;;;;;;18.68;51.39;100219.59;5062205;28;1902;-59
2022/03/30 08:25:01;;;;;;;;;;;;;;;18.69;52.16;100235.53;5064307;28;1541;-65
2022/03/30 08:27:30;;;;;;;;;;;;;;;18.68;51.85;100233.84;5067983;28;1449;-59
2022/03/30 08:29:57;;;;;;;;;;;;;;;18.65;52.07;100234.13;5050285;28;1230;-59
2022/03/30 08:32:23;;;;;;;;;;;;;;;18.69;51.91;100240.03;5064716;28;1676;-62
2022/03/30 08:34:50;;;;;;;;;;;;;;;18.70;51.96;100236.34;5065404;28;1357;-58
2022/03/30 08:37:17;;;;;;;;;;;;;;;18.77;51.95;100236.63;5061680;28;1584;-58
2022/03/30 08:39:44;;;;;;;;;;;;;;;18.74;51.78;100226.22;5065043;28;1565;-63
2022/03/30 08:42:11;;;;;;;;;;;;;;;18.70;51.84;100214.94;5067163;28;1907;-58
2022/03/30 08:44:41;;;;;;;;;;;;;;;18.73;51.00;100211.13;5057688;28;1877;-59
2022/03/30 08:47:08;;;;;;;;;;;;;;;18.78;50.22;100223.09;5053081;28;1533;-59
2022/03/30 08:49:37;;;;;;;;;;;;;;;18.82;50.40;100218.31;5061588;28;1767;-59
2022/03/30 08:52:04;;;;;;;;;;;;;;;18.86;49.45;100208.97;5064043;28;1739;-64
2022/03/30 08:54:31;;;;;;;;;;;;;;;18.85;49.03;100207.31;5066674;28;1380;-59
2022/03/30 08:56:57;;;;;;;;;;;;;;;18.76;49.64;100208.16;5058323;28;1429;-65
2022/03/30 08:59:25;;;;;;;;;;;;;;;18.81;49.00;100189.84;5062908;28;1253;-59
2022/03/30 09:01:55;;;;;;;;;;;;;;;18.80;48.97;100199.72;5061252;28;1704;-65
2022/03/30 09:04:22;;;;;;;;;;;;;;;18.82;48.58;100195.06;5053529;28;1906;-63
2022/03/30 09:06:53;;;;;;;;;;;;;;;18.87;48.14;100189.25;5064232;28;1360;-64
2022/03/30 09:09:27;;;;;;;;;;;;;;;18.83;48.61;100187.88;5050324;28;1684;-63
2022/03/30 09:11:55;;;;;;;;;;;;;;;18.81;48.42;100184.50;5059024;28;1581;-59
2022/03/30 09:14:22;;;;;;;;;;;;;;;18.82;49.34;100191.53;5063792;28;1524;-59
2022/03/30 09:16:50;;;;;;;;;;;;;;;18.73;48.82;100174.47;5060471;28;1699;-64
2022/03/30 09:19:20;;;;;;;;;;;;;;;18.66;49.27;100179.59;5058931;28;1747;-59
2022/03/30 09:21:47;;;;;;;;;;;;;;;18.65;49.53;100190.44;5067599;28;1608;-64
2022/03/30 09:24:15;;;;;;;;;;;;;;;18.61;49.55;100178.34;5063503;28;1973;-59
2022/03/30 09:26:42;;;;;;;;;;;;;;;18.61;49.06;100184.53;5060300;28;1533;-59
2022/03/30 09:29:11;;;;;;;;;;;;;;;18.59;49.43;100170.44;5063886;28;1441;-64
2022/03/30 09:31:39;;;;;;;;;;;;;;;18.57;49.90;100183.16;5060568;28;1366;-62
2022/03/30 09:34:07;;;;;;;;;;;;;;;18.58;49.54;100175.94;5059809;28;1362;-64
2022/03/30 09:36:36;;;;;;;;;;;;;;;18.56;50.07;100160.06;5064025;28;1569;-64
2022/03/30 09:39:03;;;;;;;;;;;;;;;18.56;49.47;100157.38;5068237;28;1758;-63
2022/03/30 09:41:45;;;;;;;;;;;;;;;18.55;49.67;100158.34;5066067;28;1467;-58
2022/03/30 09:44:11;;;;;;;;;;;;;;;18.57;49.24;100150.19;5070548;28;1969;-61
2022/03/30 09:46:51;;;;;;;;;;;;;;;18.55;49.74;100158.34;5061540;28;1366;-59
2022/03/30 09:49:31;;;;;;;;;;;;;;;18.56;49.37;100149.34;5067584;28;1722;-58
2022/03/30 09:51:59;;;;;;;;;;;;;;;18.58;49.76;100149.16;5070254;28;1659;-58
2022/03/30 09:54:38;;;;;;;;;;;;;;;18.64;48.48;100153.94;5061911;28;1426;-63
2022/03/30 09:57:09;;;;;;;;;;;;;;;18.58;48.89;100142.00;5060277;28;1720;-58
2022/03/30 09:59:50;;;;;;;;;;;;;;;18.58;48.60;100146.50;5073775;28;1349;-65
2022/03/30 10:02:17;;;;;;;;;;;;;;;18.56;49.41;100127.91;5064907;28;1443;-64
2022/03/30 10:04:44;;;;;;;;;;;;;;;18.55;49.08;100134.25;5068384;28;1968;-58
2022/03/30 10:07:12;;;;;;;;;;;;;;;18.56;49.59;100133.28;5060907;28;1563;-58
2022/03/30 10:09:40;;;;;;;;;;;;;;;18.62;49.05;100129.13;5062858;28;1735;-59
2022/03/30 10:12:08;;;;;;;;;;;;;;;18.66;49.14;100118.00;5068638;28;1464;-57
2022/03/30 10:14:36;;;;;;;;;;;;;;;18.82;48.89;100117.38;5058269;28;1551;-64
2022/03/30 10:17:03;;;;;;;;;;;;;;;18.86;49.35;100121.44;5063792;28;1732;-64
2022/03/30 10:19:30;;;;;;;;;;;;;;;18.97;49.66;100128.41;5068000;28;1639;-66
2022/03/30 10:22:02;;;;;;;;;;;;;;;18.89;50.49;100117.59;5059031;28;1367;-60
2022/03/30 10:24:39;;;;;;;;;;;;;;;18.88;51.61;100116.78;5062440;28;1909;-67
2022/03/30 10:27:10;;;;;;;;;;;;;;;18.94;51.08;100109.09;5058690;28;1353;-66
2022/03/30 10:29:38;;;;;;;;;;;;;;;18.91;50.97;100104.91;5060213;28;1279;-63
2022/03/30 10:32:15;;;;;;;;;;;;;;;18.84;52.19;100110.03;5059380;28;1379;-65
2022/03/30 10:34:43;;;;;;;;;;;;;;;18.80;51.71;100105.09;5058572;28;1703;-69
2022/03/30 10:37:10;;;;;;;;;;;;;;;18.88;52.65;100091.84;5058468;28;1395;-59
2022/03/30 10:39:52;;;;;;;;;;;;;;;18.86;52.72;100104.50;5063064;28;1402;-67
2022/03/30 10:42:20;;;;;;;;;;;;;;;18.80;52.59;100092.56;5059232;28;1418;-60
2022/03/30 10:44:47;;;;;;;;;;;;;;;18.75;52.93;100105.53;5058076;28;1910;-59
2022/03/30 10:47:16;;;;;;;;;;;;;;;18.69;53.33;100096.25;5059015;28;1447;-70
2022/03/30 10:49:47;;;;;;;;;;;;;;;18.68;53.41;100088.38;5057651;28;1355;-70
2022/03/30 10:52:34;;;;;;;;;;;;;;;18.62;53.64;100095.19;5061196;28;1386;-60
2022/03/30 10:55:20;;;;;;;;;;;;;;;18.60;53.44;100086.47;5060532;28;1365;-71
2022/03/30 10:57:49;;;;;;;;;;;;;;;18.60;53.38;100086.47;5061215;28;1878;-71
2022/03/30 11:00:20;;;;;;;;;;;;;;;18.61;53.59;100074.75;5060019;28;1370;-63
2022/03/30 11:02:46;;;;;;;;;;;;;;;18.71;53.28;100089.91;5061738;28;1902;-65
2022/03/30 11:05:14;;;;;;;;;;;;;;;18.69;53.12;100082.03;5064008;28;1728;-57
2022/03/30 11:07:41;;;;;;;;;;;;;;;18.69;52.89;100080.19;5062351;28;1594;-61
2022/03/30 11:10:14;;;;;;;;;;;;;;;18.73;53.41;100074.53;5062156;28;1340;-60
2022/03/30 11:15:54;;;;;;;;;;;;;;;18.76;53.54;100084.94;5030098;28;1477;-34
2022/03/30 11:18:20;;;;;;;;;;;;;;;18.57;53.71;100068.00;4999851;28;2027;-33
2022/03/30 11:21:05;;;;;;;;;;;;;;;18.56;53.97;100063.66;5020493;28;1826;-34
2022/03/30 11:23:32;;;;;;;;;;;;;;;18.53;54.29;100061.25;4995419;28;1439;-35
2022/03/30 11:25:58;;;;;;;;;;;;;;;18.52;54.67;100066.75;5007294;28;1638;-35
2022/03/30 11:28:35;;;;;;;;;;;;;;;18.58;54.52;100066.16;5028438;28;1758;-34
2022/03/30 11:31:05;;;;;;;;;;;;;;;18.54;54.48;100057.56;5044021;28;1750;-34
2022/03/30 11:33:34;;;;;;;;;;;;;;;18.54;54.58;100065.59;5008519;28;1989;-34
2022/03/30 11:36:02;;;;;;;;;;;;;;;18.55;54.77;100067.31;5030636;28;1997;-35
2022/03/30 11:38:37;;;;;;;;;;;;;;;18.54;54.30;100060.25;5041260;28;1559;-34
2022/03/30 11:41:06;;;;;;;;;;;;;;;18.53;54.84;100047.03;5045885;28;1573;-35
2022/03/30 11:45:12;;;;;;;;;;;;;;;18.51;55.14;100065.94;4999326;28;2014;-34
2022/03/30 11:46:24;;;;;;;;;;;;;;;18.53;54.66;100049.72;5006830;28;1692;-34
2022/03/30 11:48:51;;;;;;;;;;;;;;;18.52;55.49;100043.50;4999840;28;1596;-34
2022/03/30 11:51:17;;;;;;;;;;;;;;;18.52;55.41;100030.09;5003622;28;1798;-34
2022/03/30 11:53:45;;;;;;;;;;;;;;;18.50;55.52;100029.41;5005377;28;2172;-34
2022/03/30 11:56:12;;;;;;;;;;;;;;;18.48;55.67;100034.94;4997343;28;1730;-35
2022/03/30 11:58:39;;;;;;;;;;;;;;;18.54;55.68;100029.97;5000387;28;1161;-34
2022/03/30 12:01:06;;;;;;;;;;;;;;;18.50;55.25;100026.75;4999189;28;1672;-34
2022/03/30 12:03:35;;;;;;;;;;;;;;;18.56;55.73;100018.13;4983908;28;1497;-35
2022/03/30 12:06:03;;;;;;;;;;;;;;;18.58;55.77;100021.50;4984235;28;1399;-35
2022/03/30 12:08:39;;;;;;;;;;;;;;;18.63;55.42;100021.88;4984176;28;1130;-34
2022/03/30 12:11:06;;;;;;;;;;;;;;;18.72;56.14;100008.56;4985012;28;1141;-36
2022/03/30 12:13:33;;;;;;;;;;;;;;;18.81;56.15;100013.88;4984275;28;1986;-35
2022/03/30 12:16:00;;;;;;;;;;;;;;;18.81;55.84;100013.06;4984791;28;1654;-35
2022/03/30 12:18:27;;;;;;;;;;;;;;;18.78;55.73;99997.25;4979945;28;1503;-36
2022/03/30 12:20:55;;;;;;;;;;;;;;;18.89;55.77;99991.69;4985807;28;1697;-36
2022/03/30 12:23:21;;;;;;;;;;;;;;;18.95;55.71;99988.41;4984444;28;1111;-36
2022/03/30 12:25:48;;;;;;;;;;;;;;;18.92;55.74;99988.72;4977761;28;1935;-35
2022/03/30 12:28:18;;;;;;;;;;;;;;;18.90;55.71;99996.06;4989332;28;1646;-35
2022/03/30 12:30:44;;;;;;;;;;;;;;;18.86;55.53;99984.81;4969892;28;1558;-35
2022/03/30 12:33:11;;;;;;;;;;;;;;;18.97;55.74;99982.91;4972674;28;1270;-35
2022/03/30 12:35:39;;;;;;;;;;;;;;;18.90;55.74;99985.34;4993964;28;1976;-35
2022/03/30 12:38:08;;;;;;;;;;;;;;;18.85;56.26;99976.94;4971127;28;1488;-35
2022/03/30 12:40:35;;;;;;;;;;;;;;;18.81;56.34;99968.34;4969185;28;1306;-36
2022/03/30 12:43:01;;;;;;;;;;;;;;;18.82;57.05;99962.00;4986356;28;1723;-35
2022/03/30 12:45:28;;;;;;;;;;;;;;;18.88;55.42;99979.31;4982603;28;1458;-36
2022/03/30 12:47:59;;;;;;;;;;;;;;;18.93;55.79;99974.31;4969823;28;1996;-35
2022/03/30 12:50:29;;;;;;;;;;;;;;;18.97;55.99;99964.13;4971325;28;1588;-36
2022/03/30 12:53:03;;;;;;;;;;;;;;;18.88;55.89;99961.41;4970902;28;1585;-34
2022/03/30 12:55:34;;;;;;;;;;;;;;;18.85;55.63;99960.84;4974394;28;1977;-35
2022/03/30 12:58:01;;;;;;;;;;;;;;;18.79;55.72;99953.41;4970600;28;1411;-35
2022/03/30 13:00:31;;;;;;;;;;;;;;;18.84;55.53;99959.16;4972362;28;1542;-35